createdAt,value
2019-05-07T00:00:03.898Z,12.65
2019-05-07T00:02:49.347Z,10.93
2019-05-07T00:05:34.601Z,10.43
2019-05-07T00:08:19.392Z,11.03
2019-05-07T00:11:04.261Z,9.90
2019-05-07T00:13:48.932Z,10.55
2019-05-07T00:16:33.865Z,14.70
2019-05-07T00:19:18.666Z,13.95
2019-05-07T00:22:03.599Z,10.70
2019-05-07T00:24:48.368Z,10.13
2019-05-07T00:27:33.209Z,9.53
2019-05-07T00:30:18.222Z,11.38
2019-05-07T00:33:03.018Z,12.00
2019-05-07T00:35:49.588Z,11.30
2019-05-07T00:38:36.469Z,11.50
2019-05-07T00:41:35.465Z,10.55
2019-05-07T00:44:22.106Z,13.68
2019-05-07T00:47:07.051Z,15.93
2019-05-07T00:49:52.255Z,11.25
2019-05-07T00:52:37.486Z,8.95
2019-05-07T00:55:22.813Z,12.13
2019-05-07T00:58:07.831Z,9.63
2019-05-07T01:00:53.235Z,13.15
2019-05-07T01:03:38.470Z,12.53
2019-05-07T01:06:26.415Z,12.03
2019-05-07T01:09:12.156Z,10.88
2019-05-07T01:11:56.871Z,11.95
2019-05-07T01:14:42.071Z,9.60
2019-05-07T01:17:26.949Z,9.08
2019-05-07T01:20:12.573Z,9.93
2019-05-07T01:22:58.203Z,14.30
2019-05-07T01:25:43.218Z,8.43
2019-05-07T01:28:28.419Z,11.05
2019-05-07T01:31:13.187Z,14.65
2019-05-07T01:33:59.965Z,11.10
2019-05-07T01:36:44.801Z,8.88
2019-05-07T01:39:29.621Z,9.68
2019-05-07T01:42:14.521Z,10.60
2019-05-07T01:44:59.326Z,9.83
2019-05-07T01:47:44.352Z,11.43
2019-05-07T01:50:32.267Z,8.33
2019-05-07T01:53:17.353Z,13.25
2019-05-07T01:56:03.213Z,13.38
2019-05-07T01:58:48.410Z,10.05
2019-05-07T02:01:35.844Z,9.45
2019-05-07T02:04:27.926Z,8.63
2019-05-07T02:07:14.871Z,9.48
2019-05-07T02:10:02.795Z,10.10
2019-05-07T02:12:48.395Z,7.80
2019-05-07T02:15:33.186Z,8.85
2019-05-07T02:18:17.967Z,11.22
2019-05-07T02:21:03.299Z,10.68
2019-05-07T02:23:48.207Z,9.40
2019-05-07T02:26:34.056Z,9.45
2019-05-07T02:29:18.894Z,11.40
2019-05-07T02:32:04.908Z,10.20
2019-05-07T02:34:50.066Z,9.78
2019-05-07T02:37:49.865Z,11.93
2019-05-07T02:40:25.741Z,9.20
2019-05-07T02:43:13.677Z,7.58
2019-05-07T02:46:17.410Z,8.10
2019-05-07T02:48:53.667Z,8.30
2019-05-07T02:51:43.219Z,11.22
2019-05-07T02:54:32.900Z,10.35
2019-05-07T02:57:17.870Z,8.30
2019-05-07T03:00:05.000Z,11.25
2019-05-07T03:02:53.057Z,8.68
2019-05-07T03:05:37.590Z,9.40
2019-05-07T03:08:26.994Z,7.72
2019-05-07T03:11:09.134Z,10.72
2019-05-07T03:13:54.040Z,9.33
2019-05-07T03:16:44.167Z,10.78
2019-05-07T03:19:27.033Z,8.68
2019-05-07T03:22:13.949Z,10.72
2019-05-07T03:25:03.408Z,9.85
2019-05-07T03:27:47.414Z,10.35
2019-05-07T03:30:37.199Z,7.85
2019-05-07T03:33:30.227Z,11.15
2019-05-07T03:36:17.151Z,8.58
2019-05-07T03:39:03.488Z,8.68
2019-05-07T03:41:48.968Z,10.55
2019-05-07T03:44:44.521Z,11.18
2019-05-07T03:47:38.998Z,10.30
2019-05-07T03:50:24.894Z,13.05
2019-05-07T03:53:09.658Z,9.23
2019-05-07T03:55:54.493Z,8.23
2019-05-07T03:58:39.257Z,10.23
2019-05-07T04:01:24.248Z,9.83
2019-05-07T04:04:09.258Z,8.08
2019-05-07T04:06:54.038Z,9.48
2019-05-07T04:09:39.041Z,11.43
2019-05-07T04:12:24.226Z,7.85
2019-05-07T04:15:09.554Z,10.50
2019-05-07T04:17:54.727Z,9.73
2019-05-07T04:20:43.165Z,10.63
2019-05-07T04:23:26.339Z,8.15
2019-05-07T04:26:15.945Z,9.03
2019-05-07T04:29:05.536Z,7.47
2019-05-07T04:31:49.850Z,9.08
2019-05-07T04:34:53.485Z,7.95
2019-05-07T04:37:38.602Z,7.70
2019-05-07T04:40:24.212Z,9.03
2019-05-07T04:43:09.485Z,14.20
2019-05-07T04:46:08.039Z,9.55
2019-05-07T04:48:53.118Z,12.00
2019-05-07T04:51:43.532Z,9.95
2019-05-07T04:54:28.751Z,10.32
2019-05-07T04:57:18.185Z,10.98
2019-05-07T05:00:04.540Z,14.90
2019-05-07T05:02:53.078Z,9.33
2019-05-07T05:05:38.499Z,9.50
2019-05-07T05:08:23.644Z,12.90
2019-05-07T05:11:12.585Z,10.20
2019-05-07T05:13:57.000Z,9.50
2019-05-07T05:16:42.490Z,11.88
2019-05-07T05:19:27.862Z,15.50
2019-05-07T05:22:23.598Z,12.55
2019-05-07T05:25:28.302Z,14.83
2019-05-07T05:28:13.676Z,9.85
2019-05-07T05:31:00.733Z,11.90
2019-05-07T05:33:45.866Z,14.10
2019-05-07T05:36:32.765Z,10.48
2019-05-07T05:39:17.450Z,8.35
2019-05-07T05:42:04.350Z,8.65
2019-05-07T05:44:49.482Z,10.20
2019-05-07T05:47:34.580Z,10.72
2019-05-07T05:50:19.219Z,11.75
2019-05-07T05:53:06.068Z,10.43
2019-05-07T05:55:52.817Z,10.00
2019-05-07T05:58:39.652Z,7.40
2019-05-07T06:01:43.342Z,8.45
2019-05-07T06:04:35.827Z,8.07
2019-05-07T06:07:23.078Z,10.15
2019-05-07T06:10:15.596Z,16.52
2019-05-07T06:13:17.804Z,9.25
2019-05-07T06:16:07.131Z,10.93
2019-05-07T06:18:53.926Z,8.28
2019-05-07T06:21:58.674Z,9.68
2019-05-07T06:24:48.461Z,10.43
2019-05-07T06:27:33.143Z,11.18
2019-05-07T06:30:18.769Z,9.33
2019-05-07T06:33:04.081Z,10.70
2019-05-07T06:35:48.925Z,11.65
2019-05-07T06:38:38.436Z,15.68
2019-05-07T06:41:26.685Z,10.68
2019-05-07T06:44:13.464Z,7.45
2019-05-07T06:46:58.629Z,10.78
2019-05-07T06:49:43.810Z,8.93
2019-05-07T06:52:28.586Z,9.08
2019-05-07T06:55:13.759Z,10.85
2019-05-07T06:57:58.806Z,7.72
2019-05-07T07:00:45.832Z,15.88
2019-05-07T07:03:35.323Z,8.05
2019-05-07T07:06:25.472Z,9.15
2019-05-07T07:09:22.270Z,9.90
2019-05-07T07:12:12.886Z,8.40
2019-05-07T07:14:58.275Z,11.08
2019-05-07T07:17:43.478Z,10.10
2019-05-07T07:20:32.445Z,8.63
2019-05-07T07:23:17.203Z,7.03
2019-05-07T07:26:03.167Z,9.23
2019-05-07T07:28:48.224Z,8.98
2019-05-07T07:31:34.904Z,8.53
2019-05-07T07:34:22.561Z,8.68
2019-05-07T07:37:23.842Z,6.70
2019-05-07T07:40:22.291Z,7.53
2019-05-07T07:43:07.378Z,6.20
2019-05-07T07:45:52.878Z,7.95
2019-05-07T07:48:37.747Z,7.75
2019-05-07T07:51:37.298Z,12.18
2019-05-07T07:54:09.735Z,8.00
2019-05-07T07:57:02.404Z,6.35
2019-05-07T07:59:49.298Z,7.00
2019-05-07T08:02:36.127Z,10.63
2019-05-07T08:05:21.914Z,11.80
2019-05-07T08:08:07.033Z,10.30
2019-05-07T08:10:52.199Z,11.57
2019-05-07T08:13:37.042Z,10.43
2019-05-07T08:16:22.342Z,24.55
2019-05-07T08:19:21.380Z,10.68
2019-05-07T08:21:54.745Z,9.60
2019-05-07T08:24:39.430Z,7.75
2019-05-07T08:27:25.412Z,11.25
2019-05-07T08:30:12.408Z,9.43
2019-05-07T08:32:59.177Z,8.40
2019-05-07T08:35:45.662Z,9.05
2019-05-07T08:38:32.799Z,10.78
2019-05-07T08:41:22.353Z,8.83
2019-05-07T08:44:12.356Z,8.08
2019-05-07T08:46:57.701Z,12.33
2019-05-07T08:49:43.468Z,9.63
2019-05-07T08:52:28.670Z,9.60
2019-05-07T08:55:13.685Z,12.10
2019-05-07T08:57:59.049Z,10.08
2019-05-07T09:00:45.157Z,9.50
2019-05-07T09:03:43.171Z,7.47
2019-05-07T09:06:34.328Z,7.20
2019-05-07T09:09:22.042Z,8.48
2019-05-07T09:12:06.430Z,6.83
2019-05-07T09:14:52.969Z,7.80
2019-05-07T09:17:38.275Z,8.83
2019-05-07T09:20:23.078Z,8.80
2019-05-07T09:23:07.720Z,9.93
2019-05-07T09:25:52.649Z,8.70
2019-05-07T09:28:54.507Z,6.72
2019-05-07T09:31:52.536Z,6.15
2019-05-07T09:34:41.582Z,8.88
2019-05-07T09:37:32.450Z,9.15
2019-05-07T09:40:17.673Z,7.22
2019-05-07T09:43:03.024Z,6.45
2019-05-07T09:45:48.141Z,8.30
2019-05-07T09:48:33.878Z,6.90
2019-05-07T09:51:19.576Z,9.63
2019-05-07T09:54:04.218Z,6.03
2019-05-07T09:56:49.194Z,5.60
2019-05-07T09:59:34.365Z,7.65
2019-05-07T10:02:19.299Z,7.47
2019-05-07T10:05:05.173Z,7.70
2019-05-07T10:07:52.487Z,7.45
2019-05-07T10:10:37.559Z,7.55
2019-05-07T10:13:33.474Z,6.58
2019-05-07T10:16:35.856Z,8.58
2019-05-07T10:19:22.233Z,6.37
2019-05-07T10:22:07.333Z,6.15
2019-05-07T10:24:52.581Z,9.18
2019-05-07T10:27:39.317Z,6.55
2019-05-07T10:30:24.329Z,8.00
2019-05-07T10:33:09.270Z,6.55
2019-05-07T10:35:54.450Z,5.15
2019-05-07T10:38:39.124Z,6.92
2019-05-07T10:41:24.120Z,9.48
2019-05-07T10:44:11.884Z,4.80
2019-05-07T10:47:15.525Z,8.20
2019-05-07T10:50:17.731Z,7.17
2019-05-07T10:53:03.145Z,5.45
2019-05-07T10:55:48.303Z,6.50
2019-05-07T10:58:33.002Z,7.22
2019-05-07T11:01:22.426Z,5.67
2019-05-07T11:04:07.565Z,5.67
2019-05-07T11:06:52.452Z,7.50
2019-05-07T11:09:37.598Z,7.80
2019-05-07T11:12:22.911Z,6.05
2019-05-07T11:15:09.390Z,8.95
2019-05-07T11:17:56.274Z,7.40
2019-05-07T11:20:49.893Z,6.85
2019-05-07T11:23:29.153Z,8.48
2019-05-07T11:26:14.105Z,4.45
2019-05-07T11:28:59.032Z,5.90
2019-05-07T11:31:43.838Z,5.87
2019-05-07T11:34:32.616Z,5.25
2019-05-07T11:37:17.594Z,5.87
2019-05-07T11:40:04.000Z,5.83
2019-05-07T11:43:03.017Z,4.05
2019-05-07T11:45:54.025Z,4.90
2019-05-07T11:48:38.879Z,5.62
2019-05-07T11:51:34.935Z,5.67
2019-05-07T11:54:19.983Z,5.28
2019-05-07T11:57:05.122Z,6.42
2019-05-07T11:59:51.617Z,3.90
2019-05-07T12:02:38.242Z,5.33
2019-05-07T12:05:28.078Z,4.78
2019-05-07T12:08:13.216Z,8.53
2019-05-07T12:10:58.105Z,5.92
2019-05-07T12:13:42.936Z,6.47
2019-05-07T12:16:27.750Z,4.85
2019-05-07T12:19:16.316Z,5.45
2019-05-07T12:22:02.634Z,6.42
2019-05-07T12:24:47.925Z,4.80
2019-05-07T12:27:33.033Z,6.50
2019-05-07T12:30:37.717Z,7.45
2019-05-07T12:33:32.475Z,4.72
2019-05-07T12:36:18.548Z,6.40
2019-05-07T12:39:06.023Z,6.05
2019-05-07T12:41:52.541Z,6.78
2019-05-07T12:44:37.391Z,5.83
2019-05-07T12:47:22.564Z,6.10
2019-05-07T12:50:08.812Z,4.55
2019-05-07T12:52:58.403Z,6.15
2019-05-07T12:55:51.817Z,4.42
2019-05-07T12:58:36.805Z,5.03
2019-05-07T13:01:32.812Z,4.67
2019-05-07T13:04:37.909Z,5.12
2019-05-07T13:07:24.965Z,4.42
2019-05-07T13:10:10.137Z,4.17
2019-05-07T13:12:55.120Z,4.97
2019-05-07T13:15:43.092Z,4.12
2019-05-07T13:18:26.823Z,5.33
2019-05-07T13:21:11.998Z,4.85
2019-05-07T13:23:56.887Z,6.80
2019-05-07T13:26:42.739Z,6.75
2019-05-07T13:29:27.498Z,3.95
2019-05-07T13:32:12.995Z,4.60
2019-05-07T13:34:58.785Z,6.08
2019-05-07T13:37:51.745Z,3.87
2019-05-07T13:40:42.311Z,5.03
2019-05-07T13:43:29.266Z,7.37
2019-05-07T13:46:15.155Z,5.53
2019-05-07T13:49:02.088Z,6.65
2019-05-07T13:51:59.786Z,4.80
2019-05-07T13:54:35.356Z,5.78
2019-05-07T13:57:22.532Z,5.67
2019-05-07T14:00:12.818Z,4.30
2019-05-07T14:02:58.295Z,5.53
2019-05-07T14:05:43.850Z,5.40
2019-05-07T14:08:32.033Z,4.33
2019-05-07T14:11:17.878Z,4.42
2019-05-07T14:14:03.088Z,4.83
2019-05-07T14:16:48.081Z,7.53
2019-05-07T14:19:33.192Z,5.47
2019-05-07T14:22:19.320Z,5.10
2019-05-07T14:25:05.262Z,7.15
2019-05-07T14:27:50.050Z,7.62
2019-05-07T14:30:34.818Z,6.67
2019-05-07T14:33:36.801Z,4.92
2019-05-07T14:36:42.516Z,5.72
2019-05-07T14:39:27.177Z,6.33
2019-05-07T14:42:14.014Z,5.90
2019-05-07T14:44:59.129Z,4.80
2019-05-07T14:47:44.720Z,4.75
2019-05-07T14:50:30.313Z,5.67
2019-05-07T14:53:15.118Z,6.45
2019-05-07T14:56:00.251Z,5.42
2019-05-07T14:58:45.324Z,9.45
2019-05-07T15:01:30.373Z,11.45
2019-05-07T15:04:15.529Z,9.78
2019-05-07T15:07:02.429Z,9.28
2019-05-07T15:09:47.809Z,9.13
2019-05-07T15:12:33.031Z,11.03
2019-05-07T15:15:18.607Z,8.33
2019-05-07T15:18:08.314Z,6.47
2019-05-07T15:20:53.672Z,5.05
2019-05-07T15:23:42.289Z,7.12
2019-05-07T15:26:27.319Z,7.78
2019-05-07T15:29:13.295Z,5.55
2019-05-07T15:31:59.987Z,6.97
2019-05-07T15:34:44.961Z,11.57
2019-05-07T15:37:32.173Z,5.30
2019-05-07T15:40:17.682Z,5.35
2019-05-07T15:43:02.611Z,6.75
2019-05-07T15:45:47.627Z,5.55
2019-05-07T15:48:32.767Z,4.53
2019-05-07T15:51:17.549Z,4.83
2019-05-07T15:54:03.581Z,4.33
2019-05-07T15:56:48.413Z,4.60
2019-05-07T15:59:33.246Z,5.87
2019-05-07T16:02:22.815Z,7.53
2019-05-07T16:05:08.613Z,9.25
2019-05-07T16:07:54.634Z,5.62
2019-05-07T16:10:39.561Z,6.87
2019-05-07T16:13:26.279Z,4.40
2019-05-07T16:16:11.563Z,5.87
2019-05-07T16:19:04.593Z,5.95
2019-05-07T16:21:50.858Z,5.75
2019-05-07T16:24:35.884Z,4.65
2019-05-07T16:27:22.435Z,5.92
2019-05-07T16:30:08.249Z,4.80
2019-05-07T16:32:55.428Z,5.53
2019-05-07T16:35:42.336Z,6.67
2019-05-07T16:38:27.061Z,8.55
2019-05-07T16:41:13.592Z,7.47
2019-05-07T16:43:58.872Z,8.60
2019-05-07T16:46:43.696Z,8.78
2019-05-07T16:49:28.468Z,6.37
2019-05-07T16:52:13.291Z,5.60
2019-05-07T16:54:58.198Z,5.37
2019-05-07T16:57:58.869Z,6.05
2019-05-07T17:00:46.422Z,5.95
2019-05-07T17:03:33.280Z,6.97
2019-05-07T17:06:17.853Z,4.58
2019-05-07T17:09:06.257Z,5.62
2019-05-07T17:11:52.787Z,6.28
2019-05-07T17:14:37.461Z,7.17
2019-05-07T17:17:22.490Z,5.87
2019-05-07T17:20:08.384Z,6.80
2019-05-07T17:22:54.377Z,6.00
2019-05-07T17:25:39.367Z,3.80
2019-05-07T17:28:24.149Z,4.78
2019-05-07T17:31:08.934Z,5.10
2019-05-07T17:33:54.230Z,5.00
2019-05-07T17:36:41.910Z,5.50
2019-05-07T17:39:26.475Z,8.23
2019-05-07T17:42:11.871Z,5.75
2019-05-07T17:44:56.693Z,8.30
2019-05-07T17:47:42.461Z,5.45
2019-05-07T17:50:35.630Z,6.70
2019-05-07T17:53:22.407Z,4.87
2019-05-07T17:56:07.273Z,4.72
2019-05-07T17:58:52.305Z,6.87
2019-05-07T18:01:50.099Z,6.53
2019-05-07T18:04:50.477Z,7.10
2019-05-07T18:07:24.385Z,4.45
2019-05-07T18:10:09.435Z,6.42
2019-05-07T18:12:55.447Z,7.78
2019-05-07T18:15:42.629Z,7.22
2019-05-07T18:18:27.252Z,8.70
2019-05-07T18:21:12.579Z,6.92
2019-05-07T18:24:16.469Z,8.10
2019-05-07T18:26:58.441Z,5.85
2019-05-07T18:29:43.186Z,6.12
2019-05-07T18:32:32.291Z,5.92
2019-05-07T18:35:16.598Z,7.62
2019-05-07T18:38:02.623Z,4.85
2019-05-07T18:40:47.714Z,6.50
2019-05-07T18:43:33.191Z,6.83
2019-05-07T18:46:18.345Z,8.13
2019-05-07T18:49:03.505Z,7.87
2019-05-07T18:51:48.672Z,7.55
2019-05-07T18:54:33.423Z,8.63
2019-05-07T18:57:18.550Z,9.63
2019-05-07T19:00:36.695Z,8.43
2019-05-07T19:03:22.004Z,7.17
2019-05-07T19:06:07.042Z,8.53
2019-05-07T19:08:52.662Z,8.25
2019-05-07T19:11:39.183Z,7.35
2019-05-07T19:14:23.800Z,6.90
2019-05-07T19:17:09.398Z,6.67
2019-05-07T19:19:54.366Z,5.58
2019-05-07T19:22:39.462Z,8.83
2019-05-07T19:25:24.933Z,5.75
2019-05-07T19:28:12.769Z,6.53
2019-05-07T19:30:57.428Z,5.87
2019-05-07T19:33:42.394Z,5.92
2019-05-07T19:36:27.801Z,7.75
2019-05-07T19:39:12.999Z,7.53
2019-05-07T19:41:58.380Z,6.87
2019-05-07T19:44:43.541Z,9.05
2019-05-07T19:47:28.388Z,10.15
2019-05-07T19:50:13.951Z,7.58
2019-05-07T19:52:58.975Z,7.65
2019-05-07T19:56:03.822Z,6.35
2019-05-07T19:58:49.296Z,6.47
2019-05-07T20:01:36.233Z,7.20
2019-05-07T20:04:21.267Z,7.33
2019-05-07T20:07:06.044Z,6.15
2019-05-07T20:09:52.468Z,6.80
2019-05-07T20:12:37.729Z,5.47
2019-05-07T20:15:29.419Z,6.35
2019-05-07T20:18:14.285Z,9.13
2019-05-07T20:20:59.337Z,8.55
2019-05-07T20:23:44.547Z,9.65
2019-05-07T20:26:29.389Z,13.60
2019-05-07T20:29:14.646Z,10.13
2019-05-07T20:31:59.831Z,10.00
2019-05-07T20:34:45.306Z,11.43
2019-05-07T20:37:32.425Z,9.85
2019-05-07T20:40:17.395Z,8.38
2019-05-07T20:43:02.573Z,11.95
2019-05-07T20:45:47.803Z,13.45
2019-05-07T20:48:32.740Z,17.95
2019-05-07T20:51:17.969Z,21.95
2019-05-07T20:54:07.497Z,21.27
2019-05-07T20:56:54.843Z,20.57
2019-05-07T20:59:40.153Z,18.77
2019-05-07T21:02:25.428Z,10.35
2019-05-07T21:05:10.309Z,9.58
2019-05-07T21:07:55.403Z,8.00
2019-05-07T21:10:42.440Z,9.93
2019-05-07T21:13:31.511Z,11.30
2019-05-07T21:16:13.930Z,8.28
2019-05-07T21:18:58.610Z,10.38
2019-05-07T21:21:43.397Z,12.40
2019-05-07T21:24:28.238Z,11.93
2019-05-07T21:27:12.875Z,10.30
2019-05-07T21:29:57.866Z,11.35
2019-05-07T21:32:42.741Z,8.05
2019-05-07T21:35:27.782Z,10.08
2019-05-07T21:38:12.810Z,10.90
2019-05-07T21:40:57.978Z,7.85
2019-05-07T21:43:46.082Z,7.50
2019-05-07T21:46:29.930Z,9.63
2019-05-07T21:49:14.789Z,4.97
2019-05-07T21:52:01.745Z,6.87
2019-05-07T21:54:48.523Z,8.10
2019-05-07T21:57:38.660Z,8.18
2019-05-07T22:00:32.697Z,6.20
2019-05-07T22:03:20.145Z,9.58
2019-05-07T22:06:05.341Z,7.70
2019-05-07T22:08:50.010Z,8.28
2019-05-07T22:11:34.786Z,8.65
2019-05-07T22:14:19.534Z,10.98
2019-05-07T22:17:04.932Z,8.73
2019-05-07T22:19:52.338Z,10.35
2019-05-07T22:22:36.730Z,9.73
2019-05-07T22:25:22.173Z,8.25
2019-05-07T22:28:09.146Z,9.13
2019-05-07T22:30:58.762Z,8.33
2019-05-07T22:33:48.550Z,9.05
2019-05-07T22:36:33.197Z,9.15
2019-05-07T22:39:36.977Z,9.90
2019-05-07T22:42:24.085Z,8.88
2019-05-07T22:45:12.116Z,9.88
2019-05-07T22:47:57.501Z,13.55
2019-05-07T22:50:44.062Z,9.45
2019-05-07T22:53:29.260Z,10.93
2019-05-07T22:56:14.219Z,11.78
2019-05-07T22:58:58.881Z,8.88
2019-05-07T23:01:43.735Z,12.37
2019-05-07T23:04:28.714Z,9.93
2019-05-07T23:07:13.548Z,9.63
2019-05-07T23:09:58.702Z,9.88
2019-05-07T23:12:43.445Z,8.18
2019-05-07T23:15:28.289Z,9.78
2019-05-07T23:18:13.135Z,9.30
2019-05-07T23:20:58.298Z,5.75
2019-05-07T23:23:43.080Z,10.32
2019-05-07T23:26:28.012Z,7.20
2019-05-07T23:29:12.746Z,10.30
2019-05-07T23:31:57.520Z,17.25
2019-05-07T23:34:42.399Z,10.65
2019-05-07T23:37:27.213Z,8.45
2019-05-07T23:40:16.715Z,8.18
2019-05-07T23:43:03.805Z,8.15
2019-05-07T23:45:48.696Z,8.78
2019-05-07T23:48:33.581Z,9.85
2019-05-07T23:51:18.180Z,9.90
2019-05-07T23:54:03.595Z,7.37
2019-05-07T23:57:04.485Z,6.53
2019-05-07T23:59:35.440Z,9.30
